sensor_id;sensor_type;location;lat;lon;timestamp;temperature;humidity
7248;DHT22;3665;51.034;13.642;2023-07-02T00:01:17;17.00;1.00
7248;DHT22;3665;51.034;13.642;2023-07-02T00:06:10;17.00;1.00
7248;DHT22;3665;51.034;13.642;2023-07-02T00:11:02;17.00;1.00
7248;DHT22;3665;51.034;13.642;2023-07-02T00:15:48;17.00;1.00
7248;DHT22;3665;51.034;13.642;2023-07-02T00:20:37;17.00;1.00
7248;DHT22;3665;51.034;13.642;2023-07-02T00:25:23;17.00;1.00
7248;DHT22;3665;51.034;13.642;2023-07-02T00:30:09;17.00;1.00
7248;DHT22;3665;51.034;13.642;2023-07-02T00:34:53;17.00;1.00
7248;DHT22;3665;51.034;13.642;2023-07-02T00:39:47;17.00;1.00
7248;DHT22;3665;51.034;13.642;2023-07-02T00:44:31;17.00;1.00
7248;DHT22;3665;51.034;13.642;2023-07-02T00:49:26;17.00;1.00
7248;DHT22;3665;51.034;13.642;2023-07-02T00:54:10;17.00;1.00
7248;DHT22;3665;51.034;13.642;2023-07-02T00:58:55;17.00;1.00
7248;DHT22;3665;51.034;13.642;2023-07-02T01:03:51;17.00;1.00
7248;DHT22;3665;51.034;13.642;2023-07-02T01:08:37;17.00;1.00
7248;DHT22;3665;51.034;13.642;2023-07-02T01:13:24;17.00;1.00
7248;DHT22;3665;51.034;13.642;2023-07-02T01:18:11;16.90;1.00
7248;DHT22;3665;51.034;13.642;2023-07-02T01:22:59;16.90;1.00
7248;DHT22;3665;51.034;13.642;2023-07-02T01:27:47;16.90;1.00
7248;DHT22;3665;51.034;13.642;2023-07-02T01:32:31;17.00;1.00
7248;DHT22;3665;51.034;13.642;2023-07-02T01:37:19;17.00;1.00
7248;DHT22;3665;51.034;13.642;2023-07-02T01:42:11;16.90;1.00
7248;DHT22;3665;51.034;13.642;2023-07-02T01:46:57;16.90;1.00
7248;DHT22;3665;51.034;13.642;2023-07-02T01:51:44;16.90;1.00
7248;DHT22;3665;51.034;13.642;2023-07-02T01:56:29;16.90;1.00
7248;DHT22;3665;51.034;13.642;2023-07-02T02:01:25;17.00;1.00
7248;DHT22;3665;51.034;13.642;2023-07-02T02:06:11;16.90;99.90
7248;DHT22;3665;51.034;13.642;2023-07-02T02:10:56;16.60;99.90
7248;DHT22;3665;51.034;13.642;2023-07-02T02:15:46;16.50;1.00
7248;DHT22;3665;51.034;13.642;2023-07-02T02:20:39;16.50;99.90
7248;DHT22;3665;51.034;13.642;2023-07-02T02:25:24;16.40;1.00
7248;DHT22;3665;51.034;13.642;2023-07-02T02:30:14;16.30;99.90
7248;DHT22;3665;51.034;13.642;2023-07-02T02:34:59;16.30;99.90
7248;DHT22;3665;51.034;13.642;2023-07-02T02:39:48;16.40;99.90
7248;DHT22;3665;51.034;13.642;2023-07-02T02:44:34;16.40;1.00
7248;DHT22;3665;51.034;13.642;2023-07-02T02:49:18;16.30;1.00
7248;DHT22;3665;51.034;13.642;2023-07-02T02:54:04;16.30;1.00
7248;DHT22;3665;51.034;13.642;2023-07-02T02:58:58;16.30;99.90
7248;DHT22;3665;51.034;13.642;2023-07-02T03:03:42;16.20;1.00
7248;DHT22;3665;51.034;13.642;2023-07-02T03:08:28;16.30;99.90
7248;DHT22;3665;51.034;13.642;2023-07-02T03:13:16;16.30;1.00
7248;DHT22;3665;51.034;13.642;2023-07-02T03:18:02;16.20;1.00
7248;DHT22;3665;51.034;13.642;2023-07-02T03:22:48;16.10;61.00
7248;DHT22;3665;51.034;13.642;2023-07-02T03:27:33;16.10;99.90
7248;DHT22;3665;51.034;13.642;2023-07-02T03:32:18;16.10;1.00
7248;DHT22;3665;51.034;13.642;2023-07-02T03:37:07;16.20;99.90
7248;DHT22;3665;51.034;13.642;2023-07-02T03:42:00;16.30;1.00
7248;DHT22;3665;51.034;13.642;2023-07-02T03:46:43;16.20;99.90
7248;DHT22;3665;51.034;13.642;2023-07-02T03:51:34;16.20;1.00
7248;DHT22;3665;51.034;13.642;2023-07-02T03:56:19;16.20;99.90
7248;DHT22;3665;51.034;13.642;2023-07-02T04:01:12;16.30;1.00
7248;DHT22;3665;51.034;13.642;2023-07-02T04:06:03;16.30;99.90
7248;DHT22;3665;51.034;13.642;2023-07-02T04:10:52;16.20;1.00
7248;DHT22;3665;51.034;13.642;2023-07-02T04:15:48;16.20;99.90
7248;DHT22;3665;51.034;13.642;2023-07-02T04:20:34;16.20;1.00
7248;DHT22;3665;51.034;13.642;2023-07-02T04:25:22;16.20;99.90
7248;DHT22;3665;51.034;13.642;2023-07-02T04:30:28;16.20;99.90
7248;DHT22;3665;51.034;13.642;2023-07-02T04:35:15;16.20;99.90
7248;DHT22;3665;51.034;13.642;2023-07-02T04:40:05;16.20;99.90
7248;DHT22;3665;51.034;13.642;2023-07-02T04:44:52;16.30;99.90
7248;DHT22;3665;51.034;13.642;2023-07-02T04:49:38;16.30;99.90
7248;DHT22;3665;51.034;13.642;2023-07-02T04:54:35;16.30;99.90
7248;DHT22;3665;51.034;13.642;2023-07-02T04:59:29;16.20;99.90
7248;DHT22;3665;51.034;13.642;2023-07-02T05:04:12;16.30;99.90
7248;DHT22;3665;51.034;13.642;2023-07-02T05:09:00;16.40;99.90
7248;DHT22;3665;51.034;13.642;2023-07-02T05:13:54;16.40;99.90
7248;DHT22;3665;51.034;13.642;2023-07-02T05:18:43;16.50;99.90
7248;DHT22;3665;51.034;13.642;2023-07-02T05:23:27;16.50;99.90
7248;DHT22;3665;51.034;13.642;2023-07-02T05:28:15;16.50;1.00
7248;DHT22;3665;51.034;13.642;2023-07-02T05:33:08;16.50;99.90
7248;DHT22;3665;51.034;13.642;2023-07-02T05:37:51;16.60;99.90
7248;DHT22;3665;51.034;13.642;2023-07-02T05:42:45;16.70;1.00
7248;DHT22;3665;51.034;13.642;2023-07-02T05:47:31;17.00;99.90
7248;DHT22;3665;51.034;13.642;2023-07-02T05:52:19;17.30;1.00
7248;DHT22;3665;51.034;13.642;2023-07-02T05:57:04;17.40;1.00
7248;DHT22;3665;51.034;13.642;2023-07-02T06:01:51;17.50;99.90
7248;DHT22;3665;51.034;13.642;2023-07-02T06:06:39;17.40;1.00
7248;DHT22;3665;51.034;13.642;2023-07-02T06:11:34;17.40;1.00
7248;DHT22;3665;51.034;13.642;2023-07-02T06:16:17;17.10;38.70
7248;DHT22;3665;51.034;13.642;2023-07-02T06:21:07;16.90;11.60
7248;DHT22;3665;51.034;13.642;2023-07-02T06:25:55;17.00;30.70
7248;DHT22;3665;51.034;13.642;2023-07-02T06:30:43;17.30;19.50
7248;DHT22;3665;51.034;13.642;2023-07-02T06:35:29;17.40;1.00
7248;DHT22;3665;51.034;13.642;2023-07-02T06:40:18;17.70;1.00
7248;DHT22;3665;51.034;13.642;2023-07-02T06:45:07;17.80;1.00
7248;DHT22;3665;51.034;13.642;2023-07-02T06:49:56;17.90;1.00
7248;DHT22;3665;51.034;13.642;2023-07-02T06:54:46;18.10;1.00
7248;DHT22;3665;51.034;13.642;2023-07-02T06:59:29;18.30;1.00
7248;DHT22;3665;51.034;13.642;2023-07-02T07:04:16;18.40;1.00
7248;DHT22;3665;51.034;13.642;2023-07-02T07:09:05;18.50;1.00
7248;DHT22;3665;51.034;13.642;2023-07-02T07:13:48;19.30;1.00
7248;DHT22;3665;51.034;13.642;2023-07-02T07:18:35;19.50;1.00
7248;DHT22;3665;51.034;13.642;2023-07-02T07:23:24;19.60;1.00
7248;DHT22;3665;51.034;13.642;2023-07-02T07:28:19;20.20;1.00
7248;DHT22;3665;51.034;13.642;2023-07-02T07:33:05;20.00;1.00
7248;DHT22;3665;51.034;13.642;2023-07-02T07:37:53;19.70;1.00
7248;DHT22;3665;51.034;13.642;2023-07-02T07:42:36;20.00;1.00
7248;DHT22;3665;51.034;13.642;2023-07-02T07:47:33;20.20;1.00
7248;DHT22;3665;51.034;13.642;2023-07-02T07:52:19;20.70;1.00
7248;DHT22;3665;51.034;13.642;2023-07-02T07:57:14;21.10;1.00
7248;DHT22;3665;51.034;13.642;2023-07-02T08:02:04;20.60;1.00
7248;DHT22;3665;51.034;13.642;2023-07-02T08:06:52;21.00;1.00
7248;DHT22;3665;51.034;13.642;2023-07-02T08:11:42;21.70;1.00
7248;DHT22;3665;51.034;13.642;2023-07-02T08:16:44;22.00;1.00
7248;DHT22;3665;51.034;13.642;2023-07-02T08:21:39;21.50;1.00
7248;DHT22;3665;51.034;13.642;2023-07-02T08:26:27;21.30;1.00
7248;DHT22;3665;51.034;13.642;2023-07-02T08:31:14;22.30;1.00
7248;DHT22;3665;51.034;13.642;2023-07-02T08:36:04;22.70;1.00
7248;DHT22;3665;51.034;13.642;2023-07-02T08:40:49;22.80;1.00
7248;DHT22;3665;51.034;13.642;2023-07-02T08:45:40;22.20;1.00
7248;DHT22;3665;51.034;13.642;2023-07-02T08:50:27;21.80;1.00
7248;DHT22;3665;51.034;13.642;2023-07-02T08:55:30;22.30;1.00
7248;DHT22;3665;51.034;13.642;2023-07-02T09:00:18;22.60;1.00
7248;DHT22;3665;51.034;13.642;2023-07-02T09:05:07;22.90;1.00
7248;DHT22;3665;51.034;13.642;2023-07-02T09:09:56;23.70;1.00
7248;DHT22;3665;51.034;13.642;2023-07-02T09:14:44;23.60;1.00
7248;DHT22;3665;51.034;13.642;2023-07-02T09:19:31;22.80;1.00
7248;DHT22;3665;51.034;13.642;2023-07-02T09:24:20;23.00;1.00
7248;DHT22;3665;51.034;13.642;2023-07-02T09:29:05;23.40;1.00
7248;DHT22;3665;51.034;13.642;2023-07-02T09:34:00;24.00;1.00
7248;DHT22;3665;51.034;13.642;2023-07-02T09:38:44;24.40;1.00
7248;DHT22;3665;51.034;13.642;2023-07-02T09:43:32;24.50;1.00
7248;DHT22;3665;51.034;13.642;2023-07-02T09:48:24;24.60;1.00
7248;DHT22;3665;51.034;13.642;2023-07-02T09:53:08;24.00;1.00
7248;DHT22;3665;51.034;13.642;2023-07-02T09:57:54;23.80;1.00
7248;DHT22;3665;51.034;13.642;2023-07-02T10:02:48;24.40;1.00
7248;DHT22;3665;51.034;13.642;2023-07-02T10:07:34;25.70;1.00
7248;DHT22;3665;51.034;13.642;2023-07-02T10:12:21;24.20;1.00
7248;DHT22;3665;51.034;13.642;2023-07-02T10:17:08;23.80;1.00
7248;DHT22;3665;51.034;13.642;2023-07-02T10:22:05;23.40;1.00
7248;DHT22;3665;51.034;13.642;2023-07-02T10:27:01;23.10;1.00
7248;DHT22;3665;51.034;13.642;2023-07-02T10:31:48;23.20;1.00
7248;DHT22;3665;51.034;13.642;2023-07-02T10:36:34;23.40;1.00
7248;DHT22;3665;51.034;13.642;2023-07-02T10:46:59;25.10;1.00
7248;DHT22;3665;51.034;13.642;2023-07-02T10:52:06;26.50;1.00
7248;DHT22;3665;51.034;13.642;2023-07-02T10:57:24;26.10;1.00
7248;DHT22;3665;51.034;13.642;2023-07-02T11:02:28;25.10;1.00
7248;DHT22;3665;51.034;13.642;2023-07-02T11:07:22;24.70;1.00
7248;DHT22;3665;51.034;13.642;2023-07-02T11:12:27;24.90;1.00
7248;DHT22;3665;51.034;13.642;2023-07-02T11:17:41;25.90;1.00
7248;DHT22;3665;51.034;13.642;2023-07-02T11:22:31;25.90;1.00
7248;DHT22;3665;51.034;13.642;2023-07-02T11:27:29;25.80;1.00
7248;DHT22;3665;51.034;13.642;2023-07-02T11:32:28;25.50;1.00
7248;DHT22;3665;51.034;13.642;2023-07-02T11:37:23;25.10;1.00
7248;DHT22;3665;51.034;13.642;2023-07-02T11:42:11;24.20;1.00
7248;DHT22;3665;51.034;13.642;2023-07-02T11:46:59;23.60;1.00
7248;DHT22;3665;51.034;13.642;2023-07-02T11:51:47;23.50;1.00
7248;DHT22;3665;51.034;13.642;2023-07-02T11:56:34;24.50;1.00
7248;DHT22;3665;51.034;13.642;2023-07-02T12:01:24;25.00;1.00
7248;DHT22;3665;51.034;13.642;2023-07-02T12:10:58;25.10;1.00
7248;DHT22;3665;51.034;13.642;2023-07-02T12:15:54;25.60;1.00
7248;DHT22;3665;51.034;13.642;2023-07-02T12:20:38;24.90;1.00
7248;DHT22;3665;51.034;13.642;2023-07-02T12:25:23;25.10;1.00
7248;DHT22;3665;51.034;13.642;2023-07-02T12:30:11;25.70;1.00
7248;DHT22;3665;51.034;13.642;2023-07-02T12:35:01;25.30;1.00
7248;DHT22;3665;51.034;13.642;2023-07-02T12:39:45;24.50;1.00
7248;DHT22;3665;51.034;13.642;2023-07-02T12:44:29;24.30;1.00
7248;DHT22;3665;51.034;13.642;2023-07-02T12:49:24;24.40;1.00
7248;DHT22;3665;51.034;13.642;2023-07-02T12:54:12;24.00;1.00
7248;DHT22;3665;51.034;13.642;2023-07-02T12:58:58;23.30;1.00
7248;DHT22;3665;51.034;13.642;2023-07-02T13:03:47;24.00;1.00
7248;DHT22;3665;51.034;13.642;2023-07-02T13:08:37;24.30;1.00
7248;DHT22;3665;51.034;13.642;2023-07-02T13:13:22;24.00;1.00
7248;DHT22;3665;51.034;13.642;2023-07-02T13:18:10;23.50;1.00
7248;DHT22;3665;51.034;13.642;2023-07-02T13:22:59;23.60;1.00
7248;DHT22;3665;51.034;13.642;2023-07-02T13:27:49;23.80;1.00
7248;DHT22;3665;51.034;13.642;2023-07-02T13:32:52;24.10;1.00
7248;DHT22;3665;51.034;13.642;2023-07-02T13:37:39;23.70;1.00
7248;DHT22;3665;51.034;13.642;2023-07-02T13:42:29;24.40;1.00
7248;DHT22;3665;51.034;13.642;2023-07-02T13:47:15;25.30;1.00
7248;DHT22;3665;51.034;13.642;2023-07-02T13:52:12;25.40;1.00
7248;DHT22;3665;51.034;13.642;2023-07-02T13:57:06;24.70;1.00
7248;DHT22;3665;51.034;13.642;2023-07-02T14:02:12;23.90;1.00
7248;DHT22;3665;51.034;13.642;2023-07-02T14:06:58;23.20;1.00
7248;DHT22;3665;51.034;13.642;2023-07-02T14:11:45;22.80;1.00
7248;DHT22;3665;51.034;13.642;2023-07-02T14:16:37;23.00;1.00
7248;DHT22;3665;51.034;13.642;2023-07-02T14:21:26;23.00;1.00
7248;DHT22;3665;51.034;13.642;2023-07-02T14:26:12;22.80;1.00
7248;DHT22;3665;51.034;13.642;2023-07-02T14:31:00;22.70;1.00
7248;DHT22;3665;51.034;13.642;2023-07-02T14:35:50;23.40;1.00
7248;DHT22;3665;51.034;13.642;2023-07-02T14:40:36;24.00;1.00
7248;DHT22;3665;51.034;13.642;2023-07-02T14:45:22;24.20;1.00
7248;DHT22;3665;51.034;13.642;2023-07-02T14:50:06;23.70;1.00
7248;DHT22;3665;51.034;13.642;2023-07-02T14:54:53;23.70;1.00
7248;DHT22;3665;51.034;13.642;2023-07-02T14:59:48;23.60;1.00
7248;DHT22;3665;51.034;13.642;2023-07-02T15:04:35;23.00;1.00
7248;DHT22;3665;51.034;13.642;2023-07-02T15:09:25;22.50;1.00
7248;DHT22;3665;51.034;13.642;2023-07-02T15:14:15;23.10;1.00
7248;DHT22;3665;51.034;13.642;2023-07-02T15:19:05;23.60;1.00
7248;DHT22;3665;51.034;13.642;2023-07-02T15:24:07;23.50;1.00
7248;DHT22;3665;51.034;13.642;2023-07-02T15:29:07;24.00;1.00
7248;DHT22;3665;51.034;13.642;2023-07-02T15:34:18;24.30;1.00
7248;DHT22;3665;51.034;13.642;2023-07-02T15:39:15;24.20;1.00
7248;DHT22;3665;51.034;13.642;2023-07-02T15:44:05;23.80;1.00
7248;DHT22;3665;51.034;13.642;2023-07-02T15:48:51;22.70;1.00
7248;DHT22;3665;51.034;13.642;2023-07-02T15:53:41;22.80;1.00
7248;DHT22;3665;51.034;13.642;2023-07-02T15:58:44;23.30;1.00
7248;DHT22;3665;51.034;13.642;2023-07-02T16:03:34;22.90;1.00
7248;DHT22;3665;51.034;13.642;2023-07-02T16:08:19;23.00;1.00
7248;DHT22;3665;51.034;13.642;2023-07-02T16:13:27;23.10;1.00
7248;DHT22;3665;51.034;13.642;2023-07-02T16:18:10;22.30;1.00
7248;DHT22;3665;51.034;13.642;2023-07-02T16:23:16;22.10;1.00
7248;DHT22;3665;51.034;13.642;2023-07-02T16:28:05;22.60;1.00
7248;DHT22;3665;51.034;13.642;2023-07-02T16:32:57;22.80;1.00
7248;DHT22;3665;51.034;13.642;2023-07-02T16:37:59;23.00;1.00
7248;DHT22;3665;51.034;13.642;2023-07-02T16:42:42;22.80;1.00
7248;DHT22;3665;51.034;13.642;2023-07-02T16:47:31;23.10;1.00
7248;DHT22;3665;51.034;13.642;2023-07-02T16:52:20;23.30;1.00
7248;DHT22;3665;51.034;13.642;2023-07-02T16:57:16;22.90;1.00
7248;DHT22;3665;51.034;13.642;2023-07-02T17:02:14;23.10;1.00
7248;DHT22;3665;51.034;13.642;2023-07-02T17:07:00;22.90;1.00
7248;DHT22;3665;51.034;13.642;2023-07-02T17:11:52;22.80;1.00
7248;DHT22;3665;51.034;13.642;2023-07-02T17:16:37;22.50;1.00
7248;DHT22;3665;51.034;13.642;2023-07-02T17:21:22;22.30;1.00
7248;DHT22;3665;51.034;13.642;2023-07-02T17:30:59;21.80;1.00
7248;DHT22;3665;51.034;13.642;2023-07-02T17:35:43;21.80;1.00
7248;DHT22;3665;51.034;13.642;2023-07-02T17:40:37;21.70;1.00
7248;DHT22;3665;51.034;13.642;2023-07-02T17:45:26;21.60;1.00
7248;DHT22;3665;51.034;13.642;2023-07-02T17:50:12;21.60;1.00
7248;DHT22;3665;51.034;13.642;2023-07-02T17:54:56;21.50;1.00
7248;DHT22;3665;51.034;13.642;2023-07-02T17:59:47;21.30;1.00
7248;DHT22;3665;51.034;13.642;2023-07-02T18:04:36;21.20;1.00
7248;DHT22;3665;51.034;13.642;2023-07-02T18:09:29;21.00;1.00
7248;DHT22;3665;51.034;13.642;2023-07-02T18:14:13;20.70;1.00
7248;DHT22;3665;51.034;13.642;2023-07-02T18:18:58;20.40;1.00
7248;DHT22;3665;51.034;13.642;2023-07-02T18:23:48;20.30;1.00
7248;DHT22;3665;51.034;13.642;2023-07-02T18:28:35;20.10;1.00
7248;DHT22;3665;51.034;13.642;2023-07-02T18:33:25;20.10;1.00
7248;DHT22;3665;51.034;13.642;2023-07-02T18:38:15;20.10;1.00
7248;DHT22;3665;51.034;13.642;2023-07-02T18:42:59;19.80;1.00
7248;DHT22;3665;51.034;13.642;2023-07-02T18:47:51;19.50;1.00
7248;DHT22;3665;51.034;13.642;2023-07-02T18:52:35;19.20;1.00
7248;DHT22;3665;51.034;13.642;2023-07-02T18:57:23;18.90;1.00
7248;DHT22;3665;51.034;13.642;2023-07-02T19:02:12;18.70;1.00
7248;DHT22;3665;51.034;13.642;2023-07-02T19:06:59;18.50;1.00
7248;DHT22;3665;51.034;13.642;2023-07-02T19:11:45;18.30;1.00
7248;DHT22;3665;51.034;13.642;2023-07-02T19:16:28;18.20;1.00
7248;DHT22;3665;51.034;13.642;2023-07-02T19:21:17;18.10;1.00
7248;DHT22;3665;51.034;13.642;2023-07-02T19:26:14;18.00;1.00
7248;DHT22;3665;51.034;13.642;2023-07-02T19:31:00;18.00;1.00
7248;DHT22;3665;51.034;13.642;2023-07-02T19:35:45;18.10;1.00
7248;DHT22;3665;51.034;13.642;2023-07-02T19:40:32;18.00;1.00
7248;DHT22;3665;51.034;13.642;2023-07-02T19:45:23;18.00;1.00
7248;DHT22;3665;51.034;13.642;2023-07-02T19:50:07;18.00;1.00
7248;DHT22;3665;51.034;13.642;2023-07-02T19:54:59;18.00;1.00
7248;DHT22;3665;51.034;13.642;2023-07-02T19:59:48;18.00;1.00
7248;DHT22;3665;51.034;13.642;2023-07-02T20:04:36;17.90;1.00
7248;DHT22;3665;51.034;13.642;2023-07-02T20:09:22;17.70;1.00
7248;DHT22;3665;51.034;13.642;2023-07-02T20:14:12;17.70;1.00
7248;DHT22;3665;51.034;13.642;2023-07-02T20:19:00;17.40;1.00
7248;DHT22;3665;51.034;13.642;2023-07-02T20:23:53;17.10;1.00
7248;DHT22;3665;51.034;13.642;2023-07-02T20:28:37;16.80;1.00
7248;DHT22;3665;51.034;13.642;2023-07-02T20:33:21;16.70;1.00
7248;DHT22;3665;51.034;13.642;2023-07-02T20:38:11;16.60;1.00
7248;DHT22;3665;51.034;13.642;2023-07-02T20:43:19;16.50;1.00
7248;DHT22;3665;51.034;13.642;2023-07-02T20:48:04;16.60;1.00
7248;DHT22;3665;51.034;13.642;2023-07-02T20:52:54;16.60;1.00
7248;DHT22;3665;51.034;13.642;2023-07-02T20:57:39;16.80;1.00
7248;DHT22;3665;51.034;13.642;2023-07-02T21:02:27;17.00;1.00
7248;DHT22;3665;51.034;13.642;2023-07-02T21:07:17;17.00;1.00
7248;DHT22;3665;51.034;13.642;2023-07-02T21:12:02;17.10;1.00
7248;DHT22;3665;51.034;13.642;2023-07-02T21:16:50;16.90;1.00
7248;DHT22;3665;51.034;13.642;2023-07-02T21:21:47;16.80;1.00
7248;DHT22;3665;51.034;13.642;2023-07-02T21:26:44;16.50;1.00
7248;DHT22;3665;51.034;13.642;2023-07-02T21:31:30;16.30;1.00
7248;DHT22;3665;51.034;13.642;2023-07-02T21:36:19;16.30;1.00
7248;DHT22;3665;51.034;13.642;2023-07-02T21:41:12;16.30;1.00
7248;DHT22;3665;51.034;13.642;2023-07-02T21:45:56;16.20;1.00
7248;DHT22;3665;51.034;13.642;2023-07-02T21:50:46;16.00;1.00
7248;DHT22;3665;51.034;13.642;2023-07-02T21:55:31;15.80;1.00
7248;DHT22;3665;51.034;13.642;2023-07-02T22:00:28;15.60;1.00
7248;DHT22;3665;51.034;13.642;2023-07-02T22:05:15;15.40;1.00
7248;DHT22;3665;51.034;13.642;2023-07-02T22:10:11;15.20;1.00
7248;DHT22;3665;51.034;13.642;2023-07-02T22:14:59;15.10;1.00
7248;DHT22;3665;51.034;13.642;2023-07-02T22:19:47;15.20;1.00
7248;DHT22;3665;51.034;13.642;2023-07-02T22:24:39;15.30;1.00
7248;DHT22;3665;51.034;13.642;2023-07-02T22:29:23;15.40;1.00
7248;DHT22;3665;51.034;13.642;2023-07-02T22:34:11;15.30;1.00
7248;DHT22;3665;51.034;13.642;2023-07-02T22:39:08;15.30;1.00
7248;DHT22;3665;51.034;13.642;2023-07-02T22:43:56;15.30;1.00
7248;DHT22;3665;51.034;13.642;2023-07-02T22:48:51;15.20;1.00
7248;DHT22;3665;51.034;13.642;2023-07-02T22:53:44;15.20;1.00
7248;DHT22;3665;51.034;13.642;2023-07-02T22:58:29;15.20;1.00
7248;DHT22;3665;51.034;13.642;2023-07-02T23:03:15;15.10;1.00
7248;DHT22;3665;51.034;13.642;2023-07-02T23:08:00;15.00;1.00
7248;DHT22;3665;51.034;13.642;2023-07-02T23:12:52;15.00;1.00
7248;DHT22;3665;51.034;13.642;2023-07-02T23:17:40;15.00;1.00
7248;DHT22;3665;51.034;13.642;2023-07-02T23:22:27;15.00;1.00
7248;DHT22;3665;51.034;13.642;2023-07-02T23:27:16;15.10;1.00
7248;DHT22;3665;51.034;13.642;2023-07-02T23:32:03;15.20;1.00
7248;DHT22;3665;51.034;13.642;2023-07-02T23:37:09;15.10;1.00
7248;DHT22;3665;51.034;13.642;2023-07-02T23:41:56;15.00;1.00
7248;DHT22;3665;51.034;13.642;2023-07-02T23:46:45;14.90;1.00
7248;DHT22;3665;51.034;13.642;2023-07-02T23:51:32;14.80;1.00
7248;DHT22;3665;51.034;13.642;2023-07-02T23:56:20;14.80;1.00
